Rijkevorsel, Belgium
Current Conditions -  °F | °C
As of 11:25 AM on Thursday 18 Dec 2014 (Local Time) from EHGR Reporting Station
Light Rain Light Rain  
Wind Chill: 12°   Ceiling: 600
Heat Index: 12°   Visibility: 1.2mi
Dew Point: 12°   Wind: 12mph
Humidity: 100%   Direction: 250°WSW
Pressure: 29.83"   Gusts: NA
Location:  51.35°N, 4.76°E
Report Text: EHGR 181025Z AUTO 25010KT 2000 R28/1800 -RA SCT005 BKN006BKN008 12/12 Q1010 RERA REDZYLO 24010KT 3000 BR SCT005 OVC007 TEMPO 1500 DZRA SCT003 OVC005
Loading
Personal Weather Stations






























Interactive Weather Map New forecast layout! Learn more

10-Day Weather Forecast

Advertisements
Track Severe Weather on mobile